createdAt,value
2018-10-15T19:26:27.356Z,1572.00
2018-10-15T19:27:27.346Z,1376.00
2018-10-15T19:28:27.414Z,1200.00
2018-10-15T19:29:27.385Z,1004.00
2018-10-15T19:30:27.512Z,888.00
2018-10-15T19:31:27.409Z,828.00
2018-10-15T19:32:27.441Z,708.00
2018-10-15T19:33:27.462Z,580.00
2018-10-15T19:34:27.455Z,568.00
2018-10-15T19:35:27.570Z,664.00
2018-10-15T19:36:27.495Z,772.00
2018-10-15T19:37:27.508Z,836.00
2018-10-15T19:38:27.606Z,896.00
2018-10-15T19:39:27.539Z,968.00
2018-10-15T19:40:27.744Z,1068.00
2018-10-15T19:41:27.626Z,1180.00
2018-10-15T19:42:27.592Z,1324.00
2018-10-15T19:43:27.686Z,1408.00
2018-10-15T19:44:27.619Z,1400.00
2018-10-15T19:45:27.638Z,1512.00
2018-10-15T19:46:27.898Z,1704.00
2018-10-15T19:47:27.667Z,1864.00
2018-10-15T19:48:27.720Z,1688.00
2018-10-15T19:49:27.818Z,1284.00
2018-10-15T19:50:27.711Z,928.00
2018-10-15T19:51:27.821Z,716.00
2018-10-15T19:52:27.740Z,596.00
2018-10-15T19:53:27.772Z,584.00
2018-10-15T19:54:27.771Z,604.00
2018-10-15T19:55:27.767Z,616.00
2018-10-15T19:56:27.899Z,608.00
2018-10-15T19:57:27.814Z,656.00
2018-10-15T19:58:27.951Z,684.00
2018-10-15T19:59:27.915Z,704.00
2018-10-15T20:00:27.934Z,716.00
2018-10-15T20:01:28.034Z,748.00
2018-10-15T20:02:27.877Z,804.00
2018-10-15T20:03:27.969Z,892.00
2018-10-15T20:04:27.917Z,1004.00
2018-10-15T20:05:27.935Z,1132.00
2018-10-15T20:06:28.036Z,1216.00
2018-10-15T20:07:27.959Z,1260.00
2018-10-15T20:08:28.250Z,1432.00
2018-10-15T20:09:28.105Z,1736.00
2018-10-15T20:10:28.075Z,1992.00
2018-10-15T20:11:28.120Z,2100.00
2018-10-15T20:12:28.038Z,2136.00
2018-10-15T20:13:28.093Z,2072.00
2018-10-15T20:14:28.068Z,1984.00
2018-10-15T20:15:28.085Z,1688.00
2018-10-15T20:16:28.200Z,1388.00
2018-10-15T20:17:28.163Z,1128.00
2018-10-15T20:18:28.145Z,960.00
2018-10-15T20:19:28.202Z,852.00
2018-10-15T20:20:28.157Z,800.00
2018-10-15T20:21:28.424Z,796.00
2018-10-15T20:22:28.185Z,820.00
2018-10-15T20:23:28.199Z,812.00
2018-10-15T20:24:28.205Z,752.00
2018-10-15T20:25:28.228Z,696.00
2018-10-15T20:26:28.343Z,684.00
2018-10-15T20:27:28.242Z,644.00
2018-10-15T20:28:28.293Z,592.00
2018-10-15T20:29:28.303Z,604.00
2018-10-15T20:30:28.314Z,604.00
2018-10-15T20:31:28.418Z,608.00
2018-10-15T20:32:28.333Z,656.00
2018-10-15T20:33:28.360Z,700.00
2018-10-15T20:34:28.370Z,708.00
2018-10-15T20:35:28.469Z,696.00
2018-10-15T20:36:28.628Z,712.00
2018-10-15T20:37:28.410Z,700.00
2018-10-15T20:38:28.427Z,660.00
2018-10-15T20:39:28.441Z,640.00
2018-10-15T20:40:28.438Z,652.00
2018-10-15T20:41:28.465Z,628.00
2018-10-15T20:42:28.738Z,616.00
2018-10-15T20:43:28.494Z,632.00
2018-10-15T20:44:28.512Z,648.00
2018-10-15T20:45:28.524Z,648.00
2018-10-15T20:46:28.542Z,596.00
2018-10-15T20:47:28.547Z,536.00
2018-10-15T20:48:28.881Z,504.00
2018-10-15T20:49:28.588Z,500.00
2018-10-15T20:50:28.589Z,500.00
2018-10-15T20:51:28.604Z,496.00
2018-10-15T20:52:28.633Z,468.00
2018-10-15T20:53:28.736Z,416.00
2018-10-15T20:54:28.663Z,364.00
2018-10-15T20:55:28.661Z,320.00
2018-10-15T20:56:28.694Z,292.00
2018-10-15T20:57:28.772Z,268.00
2018-10-15T20:58:28.852Z,244.00
2018-10-15T20:59:28.935Z,232.00
2018-10-15T21:00:28.736Z,220.00
2018-10-15T21:01:28.751Z,204.00
2018-10-15T21:02:28.781Z,184.00
2018-10-15T21:03:28.899Z,168.00
2018-10-15T21:04:28.809Z,148.00
2018-10-15T21:05:28.823Z,136.00
2018-10-15T21:06:28.828Z,132.00
2018-10-15T21:07:28.849Z,124.00
2018-10-15T21:08:28.968Z,120.00
2018-10-15T21:09:28.885Z,112.00
2018-10-15T21:10:28.885Z,104.00
2018-10-15T21:11:28.910Z,96.00
2018-10-15T21:12:28.925Z,92.00
2018-10-15T21:13:29.074Z,80.00
2018-10-15T21:14:28.955Z,76.00
2018-10-15T21:15:28.971Z,72.00
2018-10-15T21:16:28.982Z,64.00
2018-10-15T21:17:28.995Z,60.00
2018-10-15T21:18:29.112Z,56.00
2018-10-15T21:19:29.012Z,52.00
2018-10-15T21:20:29.245Z,48.00
2018-10-15T21:21:29.057Z,48.00
2018-10-15T21:22:29.074Z,48.00
2018-10-15T21:23:29.279Z,44.00
2018-10-15T21:24:29.104Z,44.00
2018-10-15T21:25:29.111Z,44.00
2018-10-15T21:26:29.136Z,40.00
2018-10-15T21:27:29.146Z,44.00
2018-10-15T21:28:29.259Z,44.00
2018-10-15T21:29:29.175Z,44.00
2018-10-15T21:30:29.176Z,44.00
2018-10-15T21:31:29.201Z,40.00
2018-10-15T21:32:29.200Z,40.00
2018-10-15T21:33:29.333Z,40.00
2018-10-15T21:34:29.483Z,44.00
2018-10-15T21:35:29.246Z,40.00
2018-10-15T21:36:29.329Z,44.00
2018-10-15T21:37:29.294Z,44.00
2018-10-15T21:38:29.419Z,44.00
2018-10-15T21:39:29.320Z,44.00
2018-10-15T21:40:29.337Z,44.00
2018-10-15T21:41:29.336Z,40.00
2018-10-15T21:42:29.360Z,44.00
2018-10-15T21:43:29.464Z,44.00
2018-10-15T21:44:29.395Z,44.00
2018-10-15T21:45:29.408Z,44.00
2018-10-15T21:46:29.479Z,44.00
2018-10-15T21:47:29.420Z,44.00
2018-10-15T21:48:29.551Z,40.00
2018-10-15T21:49:29.467Z,40.00
2018-10-15T21:50:29.483Z,44.00
2018-10-15T21:51:29.497Z,40.00
2018-10-15T21:52:29.507Z,44.00
2018-10-15T21:53:29.777Z,44.00
2018-10-15T21:54:29.541Z,44.00
2018-10-15T21:55:29.549Z,44.00
2018-10-15T21:56:29.569Z,40.00
2018-10-15T21:57:29.612Z,44.00
2018-10-15T21:58:29.597Z,44.00
2018-10-15T21:59:29.714Z,40.00
2018-10-15T22:00:29.622Z,40.00
2018-10-15T22:01:29.638Z,40.00
2018-10-15T22:02:29.659Z,44.00
2018-10-15T22:03:29.650Z,40.00
2018-10-15T22:04:29.778Z,44.00
2018-10-15T22:05:29.818Z,44.00
2018-10-15T22:06:29.714Z,44.00
2018-10-15T22:07:29.730Z,44.00
2018-10-15T22:08:29.731Z,44.00
2018-10-15T22:09:29.867Z,40.00
2018-10-15T22:10:29.769Z,44.00
2018-10-15T22:11:29.771Z,44.00
2018-10-15T22:12:29.800Z,40.00
2018-10-15T22:13:29.801Z,40.00
2018-10-15T22:14:29.924Z,40.00
2018-10-15T22:15:29.846Z,44.00
2018-10-15T22:16:29.910Z,40.00
2018-10-15T22:17:29.873Z,40.00
2018-10-15T22:18:29.871Z,44.00
2018-10-15T22:19:29.999Z,40.00
2018-10-15T22:20:29.918Z,44.00
2018-10-15T22:21:29.934Z,44.00
2018-10-15T22:22:29.945Z,40.00
2018-10-15T22:23:29.948Z,40.00
2018-10-15T22:24:30.074Z,40.00
2018-10-15T22:25:29.991Z,44.00
2018-10-15T22:26:30.002Z,44.00
2018-10-15T22:27:30.017Z,44.00
2018-10-15T22:28:30.030Z,44.00
2018-10-15T22:29:30.145Z,44.00
2018-10-15T22:30:30.061Z,44.00
2018-10-15T22:31:30.082Z,40.00
2018-10-15T22:32:30.093Z,40.00
2018-10-15T22:33:30.106Z,44.00
2018-10-15T22:34:30.203Z,44.00
2018-10-15T22:35:30.138Z,44.00
2018-10-15T22:36:30.146Z,44.00
2018-10-15T22:37:30.153Z,44.00
2018-10-15T22:38:30.175Z,44.00
2018-10-15T22:39:30.292Z,44.00
2018-10-15T22:40:30.200Z,40.00
2018-10-15T22:41:30.219Z,44.00
2018-10-15T22:42:30.234Z,40.00
2018-10-15T22:43:30.246Z,40.00
2018-10-15T22:44:30.408Z,44.00
2018-10-15T22:45:30.278Z,44.00
2018-10-15T22:46:30.289Z,44.00
2018-10-15T22:47:30.285Z,44.00
2018-10-15T22:48:30.306Z,44.00
2018-10-15T22:49:30.420Z,44.00
2018-10-15T22:50:30.345Z,44.00
2018-10-15T22:51:30.358Z,44.00
2018-10-15T22:52:30.377Z,44.00
2018-10-15T22:53:30.414Z,44.00
2018-10-15T22:54:30.505Z,44.00
2018-10-15T22:55:30.417Z,40.00
2018-10-15T22:56:30.441Z,40.00
2018-10-15T22:57:30.448Z,44.00
2018-10-15T22:58:30.450Z,40.00
2018-10-15T22:59:30.565Z,44.00
2018-10-15T23:00:30.490Z,44.00
2018-10-15T23:01:30.500Z,44.00
2018-10-15T23:02:30.516Z,44.00
2018-10-15T23:03:30.522Z,44.00
2018-10-15T23:04:30.799Z,44.00
2018-10-15T23:05:30.560Z,44.00
2018-10-15T23:06:30.577Z,44.00
2018-10-15T23:07:30.574Z,44.00
2018-10-15T23:08:30.604Z,44.00
2018-10-15T23:09:30.719Z,40.00
2018-10-15T23:10:30.634Z,40.00
2018-10-15T23:11:30.649Z,44.00
2018-10-15T23:12:30.660Z,44.00
2018-10-15T23:13:30.676Z,40.00
2018-10-15T23:14:30.840Z,44.00
2018-10-15T23:15:30.702Z,44.00
2018-10-15T23:16:30.702Z,44.00
2018-10-15T23:17:30.721Z,44.00
2018-10-15T23:18:30.750Z,44.00
2018-10-15T23:19:30.862Z,44.00
2018-10-15T23:20:30.772Z,44.00
2018-10-15T23:21:30.793Z,44.00
2018-10-15T23:22:30.806Z,44.00
2018-10-15T23:23:30.807Z,44.00
2018-10-15T23:24:30.929Z,44.00
2018-10-15T23:25:30.854Z,44.00
2018-10-15T23:26:30.859Z,44.00
2018-10-15T23:27:30.872Z,44.00
2018-10-15T23:28:30.889Z,40.00
2018-10-15T23:29:31.002Z,44.00
2018-10-15T23:30:30.915Z,40.00
2018-10-15T23:31:30.930Z,40.00
2018-10-15T23:32:30.947Z,40.00
2018-10-15T23:33:30.957Z,40.00
2018-10-15T23:34:31.071Z,40.00
2018-10-15T23:35:30.986Z,40.00
2018-10-15T23:36:31.002Z,40.00
2018-10-15T23:37:31.015Z,40.00
2018-10-15T23:38:31.027Z,40.00
2018-10-15T23:39:31.143Z,40.00
2018-10-15T23:40:31.057Z,40.00
2018-10-15T23:41:31.071Z,40.00
2018-10-15T23:42:31.091Z,40.00
2018-10-15T23:43:31.096Z,40.00
2018-10-15T23:44:31.214Z,44.00
2018-10-15T23:45:31.128Z,40.00
2018-10-15T23:46:31.140Z,40.00
2018-10-15T23:47:31.154Z,44.00
2018-10-15T23:48:31.158Z,40.00
2018-10-15T23:49:31.285Z,40.00
2018-10-15T23:50:31.196Z,44.00
2018-10-15T23:51:31.200Z,40.00
2018-10-15T23:52:31.223Z,44.00
2018-10-15T23:53:31.243Z,44.00
2018-10-15T23:54:31.356Z,44.00
2018-10-15T23:55:31.288Z,44.00
2018-10-15T23:56:31.284Z,44.00
2018-10-15T23:57:31.293Z,44.00
2018-10-15T23:58:31.308Z,44.00
2018-10-15T23:59:31.420Z,40.00
